Shinko Maru — JL6636 — position and weather

sailwx.info

Track history (hours):
 
Tides and Currents Weather Stations Pressure Air Temp Water Temp Dewpoint Dewpoint Depression Visibility Wind Speed Wind Dir Waves Ship Positions

Shinko Maru

Last reported at 2017-Oct-14 02:42 UTC. Time now 2017-Oct-19 05:37 UTC.
Position N 34°37' E 134°58'.

Length 66 m; draft 3.8 m.

Type: Tanker. MMSI: 431501479.

Date/timePositionNaut miles runAvg speedWind from/ knotsBaromVisibWave heightAir tempDewpointWater temp
2017-Oct-14 02:42N 34°37' E 134°58'310.3
2017-Oct-14 02:24N 34°37' E 135°01'4 9.8
2017-Oct-14 02:00N 34°36' E 135°06'611.1
2017-Oct-14 01:30N 34°35' E 135°12'612.0
2017-Oct-14 01:00N 34°34' E 135°20'5 1.8
2017-Oct-13 22:15N 34°33' E 135°26'0 0.9
2017-Oct-13 21:59N 34°33' E 135°25'3 5.2
2017-Oct-13 21:30N 34°33' E 135°22'4 8.2
2017-Oct-13 21:00N 34°32' E 135°18'510.2
2017-Oct-13 20:30N 34°29' E 135°13'510.3
2017-Oct-13 20:00N 34°25' E 135°08'611.2
2017-Oct-13 19:29N 34°21' E 135°03'511.1
2017-Oct-13 19:00N 34°17' E 134°59'611.6
2017-Oct-13 18:30N 34°11' E 134°60'612.1
2017-Oct-13 18:00N 34°05' E 135°01'  
2017-Oct-10 08:01N 34°36' E 134°55'0 9.7
2017-Oct-10 08:00N 34°36' E 134°55'5 9.1
2017-Oct-10 07:27N 34°37' E 135°01'4 8.3
2017-Oct-10 07:00N 34°36' E 135°05'511.0
2017-Oct-10 06:30N 34°35' E 135°12'611.2
2017-Oct-10 06:00N 34°34' E 135°19'511.0
2017-Oct-10 05:30N 34°33' E 135°25'1 0.1
2017-Oct-09 23:23N 34°33' E 135°26'2 1.5
2017-Oct-09 22:00N 34°34' E 135°23'0 0.1
2017-Oct-09 21:30N 34°34' E 135°23'0 0.0
2017-Oct-09 20:54N 34°34' E 135°23'0 0.0
2017-Oct-09 19:42N 34°34' E 135°23'0 0.0
2017-Oct-09 19:30N 34°34' E 135°23'0 0.0
2017-Oct-09 18:36N 34°34' E 135°23'0 0.0
2017-Oct-09 18:18N 34°34' E 135°23'0 0.0
2017-Oct-09 16:30N 34°34' E 135°23'0 0.0
2017-Oct-09 14:48N 34°34' E 135°23'0 0.0
2017-Oct-09 14:30N 34°34' E 135°23'0 0.0
2017-Oct-09 13:36N 34°34' E 135°23'0 0.0
2017-Oct-09 13:24N 34°34' E 135°23'0 0.0
2017-Oct-09 12:54N 34°34' E 135°23'0 0.0
2017-Oct-09 12:00N 34°34' E 135°23'0 0.0
2017-Oct-09 11:30N 34°34' E 135°23'0 0.0
2017-Oct-09 09:36N 34°34' E 135°23'0 0.0
2017-Oct-09 09:30N 34°34' E 135°23'0 0.1
2017-Oct-09 09:00N 34°34' E 135°23'611.2
2017-Oct-09 08:30N 34°34' E 135°17'612.8
2017-Oct-09 08:00N 34°34' E 135°09'714.4
2017-Oct-09 07:30N 34°37' E 135°01'  
2017-Oct-04 10:30N 34°07' E 134°53'611.5
2017-Oct-04 09:58N 34°13' E 134°57'6 9.4
2017-Oct-04 09:18N 34°19' E 134°59'710.4
2017-Oct-04 08:40N 34°24' E 135°04'311.6
2017-Oct-04 08:26N 34°25' E 135°07'512.0
2017-Oct-04 08:00N 34°28' E 135°12'611.9
2017-Oct-04 07:30N 34°31' E 135°18'611.4
2017-Oct-04 07:00N 34°33' E 135°25'  
Track history (hours):
 
Tides and Currents Weather Stations Pressure Air Temp Water Temp Dewpoint Dewpoint Depression Visibility Wind Speed Wind Dir Waves Ship Positions

Shinko Maru

Last reported at 2017-Oct-14 02:42 UTC. Time now 2017-Oct-19 05:37 UTC.
Position N 34°37' E 134°58'.

Length 66 m; draft 3.8 m.

Type: Tanker. MMSI: 431501479.

Date/timePositionNaut miles runAvg speedWind from/ knotsBaromVisibWave heightAir tempDewpointWater temp
2017-Oct-14 02:42N 34°37' E 134°58'310.3
2017-Oct-14 02:24N 34°37' E 135°01'4 9.8
2017-Oct-14 02:00N 34°36' E 135°06'611.1
2017-Oct-14 01:30N 34°35' E 135°12'612.0
2017-Oct-14 01:00N 34°34' E 135°20'5 1.8
2017-Oct-13 22:15N 34°33' E 135°26'0 0.9
2017-Oct-13 21:59N 34°33' E 135°25'3 5.2
2017-Oct-13 21:30N 34°33' E 135°22'4 8.2
2017-Oct-13 21:00N 34°32' E 135°18'510.2
2017-Oct-13 20:30N 34°29' E 135°13'510.3
2017-Oct-13 20:00N 34°25' E 135°08'611.2
2017-Oct-13 19:29N 34°21' E 135°03'511.1
2017-Oct-13 19:00N 34°17' E 134°59'611.6
2017-Oct-13 18:30N 34°11' E 134°60'612.1
2017-Oct-13 18:00N 34°05' E 135°01'  
2017-Oct-10 08:01N 34°36' E 134°55'0 9.7
2017-Oct-10 08:00N 34°36' E 134°55'5 9.1
2017-Oct-10 07:27N 34°37' E 135°01'4 8.3
2017-Oct-10 07:00N 34°36' E 135°05'511.0
2017-Oct-10 06:30N 34°35' E 135°12'611.2
2017-Oct-10 06:00N 34°34' E 135°19'511.0
2017-Oct-10 05:30N 34°33' E 135°25'1 0.1
2017-Oct-09 23:23N 34°33' E 135°26'2 1.5
2017-Oct-09 22:00N 34°34' E 135°23'0 0.1
2017-Oct-09 21:30N 34°34' E 135°23'0 0.0
2017-Oct-09 20:54N 34°34' E 135°23'0 0.0
2017-Oct-09 19:42N 34°34' E 135°23'0 0.0
2017-Oct-09 19:30N 34°34' E 135°23'0 0.0
2017-Oct-09 18:36N 34°34' E 135°23'0 0.0
2017-Oct-09 18:18N 34°34' E 135°23'0 0.0
2017-Oct-09 16:30N 34°34' E 135°23'0 0.0
2017-Oct-09 14:48N 34°34' E 135°23'0 0.0
2017-Oct-09 14:30N 34°34' E 135°23'0 0.0
2017-Oct-09 13:36N 34°34' E 135°23'0 0.0
2017-Oct-09 13:24N 34°34' E 135°23'0 0.0
2017-Oct-09 12:54N 34°34' E 135°23'0 0.0
2017-Oct-09 12:00N 34°34' E 135°23'0 0.0
2017-Oct-09 11:30N 34°34' E 135°23'0 0.0
2017-Oct-09 09:36N 34°34' E 135°23'0 0.0
2017-Oct-09 09:30N 34°34' E 135°23'0 0.1
2017-Oct-09 09:00N 34°34' E 135°23'611.2
2017-Oct-09 08:30N 34°34' E 135°17'612.8
2017-Oct-09 08:00N 34°34' E 135°09'714.4
2017-Oct-09 07:30N 34°37' E 135°01'  
2017-Oct-04 10:30N 34°07' E 134°53'611.5
2017-Oct-04 09:58N 34°13' E 134°57'6 9.4
2017-Oct-04 09:18N 34°19' E 134°59'710.4
2017-Oct-04 08:40N 34°24' E 135°04'311.6
2017-Oct-04 08:26N 34°25' E 135°07'512.0
2017-Oct-04 08:00N 34°28' E 135°12'611.9
2017-Oct-04 07:30N 34°31' E 135°18'611.4
2017-Oct-04 07:00N 34°33' E 135°25'  

Dump ship's entire track history